Time;durP1;ratioP1;P1;durP2;ratioP2;P2;SDS_P1;SDS_P2;PMS_P1;PMS_P2;Temp;Humidity;BMP_temperature;BMP_pressure;BME280_temperature;BME280_humidity;BME280_pressure;Samples;Min_cycle;Max_cycle;Signal;HPM_P1;HPM_P2
2022/10/17 00:03:02;;;;;;;35.63;28.67;;;14.30;99.90;;;;;;6299144;28;20470;-59
2022/10/17 00:06:07;;;;;;;36.90;30.03;;;14.30;99.90;;;;;;6297908;28;20547;-59
2022/10/17 00:09:10;;;;;;;32.90;27.00;;;14.30;99.90;;;;;;6299595;28;20470;-59
2022/10/17 00:12:13;;;;;;;38.60;28.70;;;14.20;99.90;;;;;;6299722;28;20496;-59
2022/10/17 00:15:20;;;;;;;33.70;28.50;;;14.30;99.90;;;;;;6298088;28;20840;-59
2022/10/17 04:41:51;;;;;;;27.80;24.80;;;12.20;99.90;;;;;;6249025;28;20495;-59
2022/10/17 04:58:52;;;;;;;28.60;24.10;;;12.10;99.90;;;;;;6078965;28;20474;-60
2022/10/17 05:01:55;;;;;;;35.17;26.77;;;12.10;99.90;;;;;;6251945;28;20489;-59
2022/10/17 05:04:58;;;;;;;31.20;26.13;;;12.20;99.90;;;;;;6274202;28;20474;-59
2022/10/17 05:08:01;;;;;;;29.67;26.37;;;12.10;99.90;;;;;;6274039;28;20954;-60
2022/10/17 05:11:05;;;;;;;35.03;31.63;;;12.10;99.90;;;;;;6274181;28;20991;-59
2022/10/17 05:14:10;;;;;;;45.57;40.47;;;12.10;99.90;;;;;;6274022;28;20951;-59
2022/10/17 05:17:13;;;;;;;55.13;46.73;;;12.10;99.90;;;;;;6278192;28;20470;-59
2022/10/17 05:20:16;;;;;;;49.93;41.80;;;12.10;99.90;;;;;;6281757;28;20523;-60
2022/10/17 05:23:19;;;;;;;40.40;31.57;;;12.10;99.90;;;;;;6282307;28;20727;-60
2022/10/17 05:26:23;;;;;;;37.53;31.77;;;12.20;99.90;;;;;;6272369;28;20444;-59
2022/10/17 05:29:27;;;;;;;34.90;27.43;;;12.20;99.90;;;;;;6282674;28;20473;-60
2022/10/17 05:32:30;;;;;;;60.30;41.43;;;12.10;99.90;;;;;;6282059;28;20903;-59
2022/10/17 05:35:34;;;;;;;95.03;64.77;;;12.10;99.90;;;;;;6282084;28;20482;-59
2022/10/17 05:38:37;;;;;;;52.50;39.90;;;12.10;99.90;;;;;;6282349;28;20506;-60
2022/10/17 05:41:40;;;;;;;50.40;37.70;;;12.10;99.90;;;;;;6282758;28;20462;-59
2022/10/17 05:44:45;;;;;;;49.83;37.07;;;12.20;99.90;;;;;;6283558;28;20465;-59
2022/10/17 05:47:48;;;;;;;39.10;31.07;;;12.20;99.90;;;;;;6282422;28;20466;-60
2022/10/17 05:50:58;;;;;;;65.20;44.23;;;12.30;99.90;;;;;;6282040;28;20470;-59
2022/10/17 05:54:01;;;;;;;42.07;31.80;;;12.30;99.90;;;;;;6282143;28;20462;-59
2022/10/17 05:57:05;;;;;;;61.93;44.30;;;12.40;99.90;;;;;;6282419;28;20466;-59
2022/10/17 06:00:11;;;;;;;37.93;30.37;;;12.40;99.90;;;;;;6281879;28;20482;-60
2022/10/17 06:03:14;;;;;;;37.50;30.70;;;12.40;99.90;;;;;;6281656;28;20520;-59
2022/10/17 06:06:18;;;;;;;34.90;29.23;;;12.40;99.90;;;;;;6281788;28;20466;-59
2022/10/17 06:09:21;;;;;;;34.03;28.87;;;12.40;99.90;;;;;;6282062;28;20481;-59
2022/10/17 06:12:24;;;;;;;31.63;28.17;;;12.50;99.90;;;;;;6281718;28;20477;-59
2022/10/17 06:15:28;;;;;;;30.67;27.63;;;12.60;99.90;;;;;;6281812;28;20478;-58
2022/10/17 06:18:31;;;;;;;34.10;30.07;;;12.70;99.90;;;;;;6281685;28;20492;-59
2022/10/17 06:21:36;;;;;;;32.90;29.40;;;12.80;99.90;;;;;;6282166;28;20536;-59
2022/10/17 06:24:39;;;;;;;30.07;26.77;;;12.90;99.90;;;;;;6281961;28;20477;-59
2022/10/17 06:27:42;;;;;;;29.20;25.10;;;13.00;99.90;;;;;;6279913;28;20492;-60
2022/10/17 06:30:47;;;;;;;31.30;26.87;;;13.00;99.90;;;;;;6277800;28;20549;-59
2022/10/17 06:33:50;;;;;;;33.87;29.50;;;13.10;99.90;;;;;;6277758;28;21021;-59
2022/10/17 06:36:53;;;;;;;32.10;28.53;;;13.20;99.90;;;;;;6277395;28;20513;-59
2022/10/17 06:39:56;;;;;;;30.20;27.07;;;13.20;99.90;;;;;;6277619;28;20536;-59
2022/10/17 06:42:59;;;;;;;29.70;26.50;;;13.30;99.90;;;;;;6277578;28;21013;-60
2022/10/17 06:46:05;;;;;;;30.73;26.50;;;13.30;99.90;;;;;;6277733;28;20470;-59
2022/10/17 06:49:09;;;;;;;30.27;27.17;;;13.50;99.90;;;;;;6276994;28;20573;-59
2022/10/17 06:52:13;;;;;;;27.80;24.40;;;13.60;99.90;;;;;;6277240;28;20474;-59
2022/10/17 06:55:16;;;;;;;27.50;24.60;;;13.70;99.90;;;;;;6277383;28;20478;-59
2022/10/17 06:58:25;;;;;;;28.93;24.07;;;13.80;99.90;;;;;;6277045;28;20485;-59
2022/10/17 07:01:31;;;;;;;26.00;23.20;;;13.90;99.90;;;;;;6277269;28;20470;-59
2022/10/17 07:04:34;;;;;;;29.20;23.93;;;14.00;99.90;;;;;;6277010;28;20478;-59
2022/10/17 07:07:37;;;;;;;24.70;22.10;;;14.10;99.90;;;;;;6276945;28;20478;-59
2022/10/17 07:10:46;;;;;;;30.37;24.03;;;14.20;99.90;;;;;;6276548;28;20474;-59
2022/10/17 07:13:49;;;;;;;23.13;20.63;;;14.40;99.90;;;;;;6276712;28;20474;-59
2022/10/17 07:16:55;;;;;;;23.73;21.17;;;14.50;99.90;;;;;;6276727;28;20898;-59
2022/10/17 07:19:58;;;;;;;24.43;21.90;;;14.60;99.90;;;;;;6276512;28;20478;-59
2022/10/17 07:23:01;;;;;;;24.60;21.60;;;14.70;99.90;;;;;;6276397;28;20776;-59
2022/10/17 07:26:07;;;;;;;24.03;21.50;;;14.90;99.90;;;;;;6276190;28;20467;-59
2022/10/17 07:29:11;;;;;;;23.77;20.00;;;15.00;99.90;;;;;;6276082;28;20478;-59
2022/10/17 07:32:15;;;;;;;23.13;20.00;;;15.10;99.90;;;;;;6276362;28;20482;-60
2022/10/17 07:35:18;;;;;;;24.27;20.90;;;15.20;99.90;;;;;;6273716;28;20831;-59
2022/10/17 07:38:22;;;;;;;22.47;19.90;;;15.30;99.90;;;;;;6275125;28;20461;-59
2022/10/17 07:41:25;;;;;;;22.10;19.87;;;15.40;99.90;;;;;;6275379;28;20449;-60
2022/10/17 07:44:28;;;;;;;25.00;21.17;;;15.60;99.90;;;;;;6275935;28;20443;-60
2022/10/17 07:47:34;;;;;;;23.63;19.77;;;15.80;99.90;;;;;;6276183;28;20442;-60
2022/10/17 07:50:37;;;;;;;26.50;20.90;;;15.90;99.90;;;;;;6275432;28;20470;-60
2022/10/17 07:53:41;;;;;;;22.77;20.47;;;16.10;99.90;;;;;;6275155;28;20535;-60
2022/10/17 07:56:50;;;;;;;26.93;22.60;;;16.20;99.90;;;;;;6275951;28;20463;-59
2022/10/17 07:59:54;;;;;;;24.87;20.60;;;16.40;99.90;;;;;;6275359;28;20474;-60
2022/10/17 08:02:58;;;;;;;25.60;20.67;;;16.60;99.90;;;;;;6275787;28;20466;-59
2022/10/17 08:06:03;;;;;;;24.63;20.77;;;16.80;99.90;;;;;;6275830;28;20470;-59
2022/10/17 08:09:06;;;;;;;22.83;19.40;;;18.00;99.90;;;;;;6275852;28;20802;-61
2022/10/17 08:12:09;;;;;;;24.63;19.20;;;21.30;99.90;;;;;;6275797;28;20685;-60
2022/10/17 08:15:12;;;;;;;23.73;20.30;;;25.00;97.80;;;;;;6275218;28;20224;-60
2022/10/17 08:18:17;;;;;;;21.50;19.60;;;28.10;84.60;;;;;;6275241;28;20592;-60
2022/10/17 08:21:20;;;;;;;21.73;19.60;;;29.80;68.60;;;;;;6275177;28;20684;-60
2022/10/17 08:24:23;;;;;;;21.17;19.25;;;30.80;59.20;;;;;;6275308;28;20242;-60
2022/10/17 08:27:27;;;;;;;21.48;19.17;;;32.70;53.20;;;;;;6274996;28;20268;-60
2022/10/17 08:30:30;;;;;;;21.52;19.20;;;34.60;48.80;;;;;;6274318;28;20257;-59
2022/10/17 08:33:35;;;;;;;21.15;19.25;;;36.30;43.20;;;;;;6274634;28;20266;-59
2022/10/17 08:36:38;;;;;;;21.67;19.63;;;37.40;38.80;;;;;;6270234;28;20234;-61
2022/10/17 08:39:42;;;;;;;19.92;18.23;;;38.60;36.20;;;;;;6275043;28;20245;-62
2022/10/17 08:42:58;;;;;;;19.13;17.70;;;39.90;33.70;;;;;;6274518;28;20227;-59
2022/10/17 08:46:03;;;;;;;21.23;19.63;;;40.70;31.90;;;;;;6274434;28;20234;-59
2022/10/17 08:49:14;;;;;;;20.13;18.50;;;41.30;29.80;;;;;;6256986;28;20237;-59
2022/10/17 08:52:28;;;;;;;20.63;18.73;;;41.50;29.50;;;;;;6273705;28;20261;-60
2022/10/17 08:55:36;;;;;;;20.10;18.38;;;42.20;28.60;;;;;;6271452;28;20236;-60
2022/10/17 08:58:44;;;;;;;21.35;19.60;;;42.60;27.80;;;;;;6274461;28;20579;-61
2022/10/17 09:01:52;;;;;;;21.10;19.45;;;43.50;26.90;;;;;;6274243;28;20631;-60
2022/10/17 09:05:21;;;;;;;21.90;19.63;;;44.30;26.20;;;;;;6274224;28;20247;-60
2022/10/17 09:08:38;;;;;;;21.65;19.70;;;45.00;25.50;;;;;;6273881;28;20218;-60
2022/10/17 09:11:54;;;;;;;20.10;18.52;;;45.50;24.60;;;;;;6274011;28;20227;-61
2022/10/17 09:15:10;;;;;;;20.38;18.60;;;45.80;24.10;;;;;;6274336;28;20653;-61
2022/10/17 09:18:19;;;;;;;22.10;19.98;;;46.40;23.50;;;;;;6273742;28;20239;-60
2022/10/17 09:21:32;;;;;;;21.65;19.77;;;46.80;23.30;;;;;;6274221;28;20222;-60
2022/10/17 09:24:42;;;;;;;21.25;19.55;;;47.00;22.70;;;;;;6272726;28;20683;-60
2022/10/17 09:27:48;;;;;;;20.60;19.08;;;47.40;22.70;;;;;;6272981;28;20545;-61
2022/10/17 09:30:56;;;;;;;20.58;19.08;;;47.60;22.20;;;;;;6273822;28;20245;-62
2022/10/17 09:34:03;;;;;;;20.65;19.02;;;48.10;22.00;;;;;;6274137;28;20372;-61
2022/10/17 09:37:12;;;;;;;21.00;19.48;;;48.00;21.90;;;;;;6273989;28;20238;-61
2022/10/17 09:40:19;;;;;;;19.88;18.10;;;47.90;21.80;;;;;;6273867;28;20238;-60
2022/10/17 09:43:23;;;;;;;19.20;17.92;;;47.90;21.80;;;;;;6269332;28;20280;-61
2022/10/17 09:46:32;;;;;;;20.55;18.88;;;48.40;21.50;;;;;;6273750;28;20223;-61
2022/10/17 09:49:38;;;;;;;20.20;18.80;;;47.60;21.70;;;;;;6273882;28;20664;-62
2022/10/17 09:52:46;;;;;;;19.95;18.35;;;48.10;21.30;;;;;;6273853;28;20234;-61
2022/10/17 09:55:54;;;;;;;20.52;18.83;;;47.50;21.40;;;;;;6273960;28;20222;-60
2022/10/17 09:58:58;;;;;;;20.58;18.88;;;46.80;21.60;;;;;;6273719;28;20242;-60
2022/10/17 10:02:10;;;;;;;22.25;20.60;;;46.20;22.10;;;;;;6273792;28;20241;-60
2022/10/17 10:05:17;;;;;;;20.42;18.70;;;46.30;22.20;;;;;;6277356;28;20231;-60
2022/10/17 10:08:26;;;;;;;21.95;20.05;;;47.00;22.20;;;;;;6277527;28;20913;-59
2022/10/17 10:11:46;;;;;;;21.27;19.77;;;47.90;21.20;;;;;;6278227;28;20585;-59
2022/10/17 10:14:50;;;;;;;20.85;19.27;;;47.50;21.50;;;;;;6277805;28;20234;-60
2022/10/17 10:17:57;;;;;;;18.33;17.08;;;47.20;21.50;;;;;;6277546;28;20680;-58
2022/10/17 10:21:10;;;;;;;20.63;18.80;;;47.80;21.50;;;;;;6278813;28;20235;-59
2022/10/17 10:24:14;;;;;;;18.80;17.45;;;48.30;21.10;;;;;;6277842;28;20242;-59
2022/10/17 10:27:18;;;;;;;21.10;19.40;;;49.20;20.70;;;;;;6276842;28;20350;-60
2022/10/17 10:30:28;;;;;;;19.27;17.88;;;49.00;20.50;;;;;;6276988;28;20678;-59
2022/10/17 10:33:35;;;;;;;17.75;16.42;;;49.00;20.80;;;;;;6277182;28;20231;-59
2022/10/17 10:36:56;;;;;;;19.90;18.52;;;48.50;21.20;;;;;;6272188;28;20218;-59
2022/10/17 10:40:03;;;;;;;17.42;16.23;;;49.40;20.70;;;;;;6277171;28;20688;-59
2022/10/17 10:43:07;;;;;;;19.23;17.58;;;49.80;20.50;;;;;;6272945;28;20226;-60
2022/10/17 10:46:19;;;;;;;18.05;16.55;;;50.20;20.40;;;;;;6277135;28;20238;-61
2022/10/17 10:49:30;;;;;;;17.77;16.65;;;50.20;20.30;;;;;;6277070;28;20235;-61
2022/10/17 10:52:42;;;;;;;17.70;16.40;;;50.40;19.90;;;;;;6276692;28;20238;-61
2022/10/17 10:55:50;;;;;;;18.08;16.98;;;50.20;20.10;;;;;;6276757;28;20251;-60
2022/10/17 10:58:56;;;;;;;19.63;17.88;;;50.60;19.60;;;;;;6276926;28;20242;-60
2022/10/17 11:02:08;;;;;;;18.90;17.52;;;50.10;20.50;;;;;;6277102;28;20228;-60
2022/10/17 11:05:16;;;;;;;18.23;16.92;;;49.90;19.90;;;;;;6276788;28;20233;-60
2022/10/17 11:08:26;;;;;;;18.58;16.90;;;49.40;20.40;;;;;;6276574;28;20556;-60
2022/10/17 11:11:37;;;;;;;20.08;18.48;;;50.40;20.20;;;;;;6277166;28;20187;-60
2022/10/17 11:14:46;;;;;;;18.38;16.98;;;50.30;19.90;;;;;;6276245;28;20238;-63
2022/10/17 11:17:57;;;;;;;18.45;17.15;;;50.30;20.00;;;;;;6276003;28;20227;-61
2022/10/17 11:21:05;;;;;;;20.25;18.65;;;50.90;19.80;;;;;;6276643;28;20288;-60
2022/10/17 11:24:14;;;;;;;19.95;18.40;;;51.10;19.20;;;;;;6276929;28;20292;-61
2022/10/17 11:27:21;;;;;;;18.42;16.98;;;49.20;19.80;;;;;;6276201;28;20241;-62
2022/10/17 11:30:27;;;;;;;19.35;17.80;;;49.20;20.00;;;;;;6276570;28;20233;-61
2022/10/17 11:33:40;;;;;;;19.38;17.83;;;50.20;19.40;;;;;;6275898;28;20230;-61
2022/10/17 11:36:45;;;;;;;18.48;16.95;;;50.90;18.60;;;;;;6251852;28;20261;-59
2022/10/17 11:39:53;;;;;;;18.25;16.95;;;50.50;18.90;;;;;;6251457;28;20231;-60
2022/10/17 11:43:02;;;;;;;18.83;17.33;;;50.20;19.00;;;;;;6262191;28;20238;-59
2022/10/17 11:46:14;;;;;;;18.98;17.67;;;50.40;19.10;;;;;;6271260;28;20353;-60
2022/10/17 11:49:22;;;;;;;17.05;15.85;;;49.80;19.20;;;;;;6275950;28;20683;-59
2022/10/17 11:52:35;;;;;;;19.38;17.98;;;49.70;19.70;;;;;;6275966;28;20246;-60
2022/10/17 11:56:00;;;;;;;17.08;15.82;;;50.80;19.10;;;;;;6275585;28;20325;-61
2022/10/17 11:59:24;;;;;;;18.88;17.58;;;51.50;18.20;;;;;;6274946;28;20234;-59
2022/10/17 12:02:36;;;;;;;18.63;17.33;;;50.90;18.50;;;;;;6275556;28;20288;-59
2022/10/17 12:05:45;;;;;;;17.45;15.98;;;51.50;18.40;;;;;;6275583;28;20628;-60
2022/10/17 12:08:55;;;;;;;18.48;17.17;;;51.50;18.40;;;;;;6275733;28;20277;-59
2022/10/17 12:12:00;;;;;;;17.27;16.10;;;51.40;18.50;;;;;;6275212;28;20782;-60
2022/10/17 12:15:31;;;;;;;17.65;16.45;;;51.90;18.40;;;;;;6275481;28;20631;-59
2022/10/17 12:18:34;;;;;;;18.48;17.02;;;51.60;17.90;;;;;;6275435;28;20234;-60
2022/10/17 12:21:55;;;;;;;17.90;16.60;;;51.20;18.40;;;;;;6274995;28;20575;-60
2022/10/17 12:25:00;;;;;;;18.75;17.40;;;50.00;18.90;;;;;;6275257;28;20608;-59
2022/10/17 12:28:15;;;;;;;19.00;17.60;;;48.90;19.20;;;;;;6274278;28;20227;-59
2022/10/17 12:31:25;;;;;;;17.92;16.63;;;48.20;20.00;;;;;;6275426;28;20228;-60
2022/10/17 12:34:36;;;;;;;17.80;16.42;;;49.10;19.40;;;;;;6274757;28;20285;-61
2022/10/17 12:38:18;;;;;;;19.70;18.17;;;48.60;19.70;;;;;;6275233;28;20233;-61
2022/10/17 12:41:54;;;;;;;19.38;17.92;;;47.00;20.70;;;;;;6274907;28;20226;-61
2022/10/17 12:44:57;;;;;;;21.30;19.85;;;46.80;21.10;;;;;;6249601;28;20227;-61
2022/10/17 12:48:02;;;;;;;20.17;18.67;;;47.00;20.90;;;;;;6249610;28;20296;-61
2022/10/17 12:51:08;;;;;;;20.83;19.27;;;47.00;21.10;;;;;;6245192;28;20297;-60
2022/10/17 12:54:37;;;;;;;20.70;18.73;;;47.10;20.90;;;;;;6249564;28;20238;-60
2022/10/17 12:57:57;;;;;;;20.65;19.10;;;47.20;20.90;;;;;;6249735;28;20249;-60
2022/10/17 13:01:01;;;;;;;22.70;21.00;;;46.80;21.30;;;;;;6249928;28;20228;-60
2022/10/17 13:04:26;;;;;;;20.13;18.52;;;47.20;21.00;;;;;;6249459;28;20227;-60
2022/10/17 13:07:30;;;;;;;21.88;20.15;;;46.30;21.70;;;;;;6249206;28;20238;-59
2022/10/17 13:10:37;;;;;;;20.35;18.85;;;45.90;21.60;;;;;;6248817;28;20238;-60
2022/10/17 13:13:48;;;;;;;22.75;21.05;;;44.50;22.40;;;;;;6248404;28;20233;-60
2022/10/17 13:16:53;;;;;;;20.13;18.63;;;43.40;23.00;;;;;;6247980;28;20231;-60
2022/10/17 13:19:58;;;;;;;23.05;21.30;;;42.20;24.40;;;;;;6248170;28;20714;-60
2022/10/17 13:23:02;;;;;;;23.55;21.67;;;41.80;25.00;;;;;;6247696;28;20234;-61
2022/10/17 13:26:12;;;;;;;22.00;20.30;;;41.90;25.00;;;;;;6260390;28;20233;-61
2022/10/17 13:29:16;;;;;;;23.60;21.80;;;42.00;25.10;;;;;;6268596;28;20577;-62
2022/10/17 13:32:20;;;;;;;21.30;19.42;;;41.80;25.30;;;;;;6270682;28;20561;-60
2022/10/17 13:35:28;;;;;;;23.10;21.20;;;41.20;26.10;;;;;;6264478;28;20206;-60
2022/10/17 13:38:52;;;;;;;24.90;22.65;;;38.90;27.70;;;;;;6250595;28;20586;-60
2022/10/17 13:41:57;;;;;;;25.33;23.02;;;36.80;29.80;;;;;;6254370;28;20600;-62
2022/10/17 13:45:01;;;;;;;24.40;22.50;;;34.60;32.90;;;;;;6276729;28;20581;-60
2022/10/17 13:48:07;;;;;;;24.80;22.65;;;32.90;35.90;;;;;;6277007;28;20238;-60
2022/10/17 13:51:13;;;;;;;24.95;22.75;;;31.30;38.70;;;;;;6278290;28;20223;-60
2022/10/17 13:54:36;;;;;;;24.05;21.75;;;30.00;41.60;;;;;;6277935;28;20300;-60
2022/10/17 13:57:39;;;;;;;25.70;23.50;;;29.00;44.00;;;;;;6275793;28;20589;-60
2022/10/17 14:00:43;;;;;;;26.00;23.60;;;28.00;46.30;;;;;;6276473;28;20257;-61
2022/10/17 14:03:47;;;;;;;24.50;22.40;;;27.40;48.00;;;;;;6275722;28;20641;-59
2022/10/17 14:07:06;;;;;;;26.20;23.80;;;27.00;49.20;;;;;;6276458;28;20230;-60
2022/10/17 14:10:19;;;;;;;23.50;21.43;;;26.60;50.50;;;;;;6276705;28;20245;-61
2022/10/17 14:13:24;;;;;;;24.83;22.53;;;26.30;51.70;;;;;;6276346;28;20529;-60
2022/10/17 14:16:34;;;;;;;27.67;24.97;;;26.20;52.50;;;;;;6276740;28;20227;-59
2022/10/17 14:19:38;;;;;;;28.10;25.10;;;25.90;53.30;;;;;;6276889;28;20579;-60
2022/10/17 14:22:42;;;;;;;28.03;25.50;;;25.60;54.20;;;;;;6278394;28;20231;-60
2022/10/17 14:26:06;;;;;;;29.30;26.40;;;25.30;55.70;;;;;;6293214;28;20220;-61
2022/10/17 14:29:23;;;;;;;26.60;24.10;;;25.00;56.90;;;;;;6288119;28;20223;-60
2022/10/17 14:32:27;;;;;;;33.13;27.00;;;24.60;58.50;;;;;;6277130;28;20217;-59
2022/10/17 14:35:31;;;;;;;26.50;23.90;;;24.30;59.60;;;;;;6277778;28;20272;-59
2022/10/17 14:38:51;;;;;;;26.97;24.40;;;24.20;60.80;;;;;;6279450;28;20641;-59
2022/10/17 14:41:54;;;;;;;30.10;27.10;;;24.10;62.20;;;;;;6277748;28;20242;-59
2022/10/17 14:45:08;;;;;;;28.13;25.53;;;24.10;63.50;;;;;;6277265;28;20224;-59
2022/10/17 14:48:14;;;;;;;30.10;27.07;;;23.90;65.10;;;;;;6276938;28;20297;-59
2022/10/17 14:51:18;;;;;;;29.37;26.53;;;23.70;66.50;;;;;;6275640;28;21108;-60
2022/10/17 14:54:27;;;;;;;30.10;27.13;;;23.50;69.30;;;;;;6267768;28;20235;-60
2022/10/17 14:57:43;;;;;;;27.80;25.03;;;23.20;71.80;;;;;;6276814;28;20243;-59
2022/10/17 15:00:47;;;;;;;29.97;26.77;;;23.00;74.00;;;;;;6273190;28;20234;-60
2022/10/17 15:03:50;;;;;;;27.10;24.20;;;23.00;75.50;;;;;;6274715;28;20227;-60
2022/10/17 15:06:54;;;;;;;26.70;24.30;;;23.10;76.60;;;;;;6275628;28;20227;-59
2022/10/17 15:09:59;;;;;;;29.17;26.27;;;23.10;77.20;;;;;;6275333;28;20232;-60
2022/10/17 15:13:03;;;;;;;29.40;26.23;;;23.00;78.10;;;;;;6275403;28;20239;-60
2022/10/17 15:16:30;;;;;;;28.30;25.43;;;23.00;79.40;;;;;;6276419;28;20237;-60
2022/10/17 15:19:34;;;;;;;30.60;27.50;;;23.00;80.40;;;;;;6277000;28;20227;-59
2022/10/17 15:22:37;;;;;;;29.97;27.17;;;22.90;81.20;;;;;;6276544;28;20231;-59
2022/10/17 15:25:41;;;;;;;28.30;25.53;;;22.90;82.10;;;;;;6276280;28;20231;-59
2022/10/17 15:28:46;;;;;;;28.53;25.67;;;22.80;83.20;;;;;;6276070;28;20231;-59
2022/10/17 15:31:49;;;;;;;29.67;26.77;;;22.70;84.10;;;;;;6276193;28;20228;-59
2022/10/17 15:34:52;;;;;;;30.50;26.20;;;22.70;84.90;;;;;;6276235;28;20227;-59
2022/10/17 15:37:55;;;;;;;30.40;26.27;;;22.60;85.70;;;;;;6275175;28;20227;-59
2022/10/17 15:41:00;;;;;;;29.73;26.97;;;22.60;86.70;;;;;;6275016;28;20552;-60
2022/10/17 15:44:03;;;;;;;27.10;24.30;;;22.60;87.40;;;;;;6274779;28;20244;-59
2022/10/17 15:47:09;;;;;;;28.60;25.73;;;22.50;87.90;;;;;;6274639;28;20281;-59
2022/10/17 15:50:14;;;;;;;29.30;26.40;;;22.40;89.20;;;;;;6274062;28;20236;-60
2022/10/17 15:53:18;;;;;;;29.00;25.93;;;22.40;90.10;;;;;;6275248;28;20238;-60
2022/10/17 15:56:26;;;;;;;29.30;26.20;;;22.30;90.40;;;;;;6270946;28;20243;-59
2022/10/17 15:59:33;;;;;;;29.70;26.50;;;22.20;90.80;;;;;;6273933;28;20270;-59
2022/10/17 16:02:36;;;;;;;30.83;27.60;;;22.20;91.40;;;;;;6274074;28;20211;-59
2022/10/17 16:05:39;;;;;;;31.70;27.50;;;22.10;91.80;;;;;;6275438;28;20200;-60
2022/10/17 16:08:42;;;;;;;31.87;28.97;;;22.00;92.40;;;;;;6275533;28;20235;-58
2022/10/17 16:11:47;;;;;;;29.90;27.30;;;21.90;92.90;;;;;;6275463;28;20605;-58
2022/10/17 16:14:50;;;;;;;32.87;27.50;;;21.80;93.40;;;;;;6275746;28;21038;-57
2022/10/17 16:17:55;;;;;;;28.50;25.60;;;21.70;93.70;;;;;;6274368;28;20250;-57
2022/10/17 16:20:58;;;;;;;29.33;26.37;;;21.60;94.20;;;;;;6275205;28;20235;-57
2022/10/17 16:24:02;;;;;;;30.70;27.80;;;21.60;94.80;;;;;;6275412;28;20223;-58
2022/10/17 16:27:08;;;;;;;27.60;24.90;;;21.50;95.30;;;;;;6275173;28;20282;-58
2022/10/17 16:30:11;;;;;;;30.43;27.53;;;21.40;95.80;;;;;;6274617;28;20572;-58
2022/10/17 16:33:14;;;;;;;33.60;30.20;;;21.20;96.20;;;;;;6274940;28;20231;-58
2022/10/17 16:36:17;;;;;;;34.07;30.70;;;21.20;96.80;;;;;;6274512;28;20281;-58
2022/10/17 16:39:20;;;;;;;33.93;30.33;;;21.10;97.30;;;;;;6275134;28;20232;-58
2022/10/17 16:42:25;;;;;;;32.10;28.97;;;21.00;97.80;;;;;;6274506;28;20561;-58
2022/10/17 16:45:28;;;;;;;36.73;33.07;;;20.90;98.30;;;;;;6272051;28;20227;-59
2022/10/17 16:48:31;;;;;;;46.70;41.70;;;20.80;98.80;;;;;;6274057;28;20259;-59
2022/10/17 16:51:35;;;;;;;44.33;39.80;;;20.70;99.40;;;;;;6274495;28;20246;-61
2022/10/17 16:54:39;;;;;;;37.87;33.83;;;20.60;99.70;;;;;;6275342;28;20231;-58
2022/10/17 16:57:47;;;;;;;30.07;26.97;;;20.60;99.90;;;;;;6274028;28;20227;-58
2022/10/17 17:00:51;;;;;;;33.47;30.07;;;20.50;99.90;;;;;;6267458;28;20799;-58
2022/10/17 17:03:56;;;;;;;37.80;30.00;;;20.40;99.90;;;;;;6275555;28;20227;-59
2022/10/17 17:07:00;;;;;;;31.90;28.50;;;20.30;99.90;;;;;;6274592;28;20227;-58
2022/10/17 17:10:04;;;;;;;31.17;28.10;;;20.20;99.90;;;;;;6274019;28;20803;-58
2022/10/17 17:13:09;;;;;;;31.47;27.77;;;20.10;99.90;;;;;;6249147;28;20694;-59
2022/10/17 17:16:17;;;;;;;33.20;27.20;;;20.10;99.90;;;;;;6260234;28;20223;-60
2022/10/17 17:19:21;;;;;;;29.10;25.90;;;20.00;99.90;;;;;;6273610;28;20565;-58
2022/10/17 17:22:25;;;;;;;29.77;26.30;;;19.90;99.90;;;;;;6273256;28;20242;-58
2022/10/17 17:25:28;;;;;;;28.90;25.90;;;19.80;99.90;;;;;;6274417;28;20227;-58
2022/10/17 17:28:35;;;;;;;36.73;28.53;;;19.70;99.90;;;;;;6274212;28;20234;-58
2022/10/17 17:31:40;;;;;;;32.67;29.17;;;19.60;99.90;;;;;;6277007;28;20247;-58
2022/10/17 17:34:44;;;;;;;44.33;39.70;;;19.50;99.90;;;;;;6272900;28;20231;-58
2022/10/17 17:37:47;;;;;;;44.80;40.07;;;19.50;99.90;;;;;;6271014;28;20228;-58
2022/10/17 17:40:52;;;;;;;58.17;45.80;;;19.40;99.90;;;;;;6270233;28;20258;-57
2022/10/17 17:43:58;;;;;;;38.60;33.30;;;19.30;99.90;;;;;;6271025;28;20223;-58
2022/10/17 17:47:01;;;;;;;67.27;50.20;;;19.30;99.90;;;;;;6271338;28;20305;-58
2022/10/17 17:50:06;;;;;;;45.23;36.40;;;19.20;99.90;;;;;;6271438;28;20259;-58
2022/10/17 17:53:11;;;;;;;50.20;39.33;;;19.20;99.90;;;;;;6273081;28;20687;-58
2022/10/17 17:56:17;;;;;;;61.67;42.20;;;19.10;99.90;;;;;;6274005;28;20238;-58
2022/10/17 17:59:22;;;;;;;43.20;36.80;;;19.00;99.90;;;;;;6274057;28;20386;-58
2022/10/17 18:02:26;;;;;;;54.50;39.57;;;19.00;99.90;;;;;;6264219;28;20543;-58
2022/10/17 18:05:31;;;;;;;67.70;46.90;;;18.90;99.90;;;;;;6273233;28;20261;-59
2022/10/17 18:08:38;;;;;;;65.30;46.70;;;18.80;99.90;;;;;;6273513;28;20310;-58
2022/10/17 18:11:42;;;;;;;58.27;40.80;;;18.60;99.90;;;;;;6255886;28;20314;-58
2022/10/17 18:14:48;;;;;;;53.03;40.13;;;18.60;99.90;;;;;;6273556;28;20266;-58
2022/10/17 18:17:52;;;;;;;39.17;32.00;;;18.50;99.90;;;;;;6273327;28;20228;-58
2022/10/17 18:21:01;;;;;;;50.37;37.43;;;18.40;99.90;;;;;;6273384;28;20228;-58
2022/10/17 18:24:07;;;;;;;41.67;32.07;;;18.40;99.90;;;;;;6273322;28;20612;-58
2022/10/17 18:27:12;;;;;;;59.73;37.10;;;18.30;99.90;;;;;;6278055;28;20242;-58
2022/10/17 18:30:18;;;;;;;62.30;41.23;;;18.30;99.90;;;;;;6278084;28;20239;-58
2022/10/17 18:33:26;;;;;;;75.17;45.80;;;18.20;99.90;;;;;;6277804;28;20239;-58
2022/10/17 18:36:31;;;;;;;65.43;41.27;;;18.20;99.90;;;;;;6278087;28;20247;-62
2022/10/17 18:39:36;;;;;;;52.50;35.00;;;18.10;99.90;;;;;;6277757;28;20325;-59
2022/10/17 18:42:43;;;;;;;47.40;35.90;;;18.10;99.90;;;;;;6277795;28;20228;-59
2022/10/17 18:45:49;;;;;;;40.90;33.27;;;18.00;99.90;;;;;;6277881;28;20722;-59
2022/10/17 18:48:54;;;;;;;47.77;37.10;;;17.90;99.90;;;;;;6277327;28;20354;-59
2022/10/17 18:51:59;;;;;;;44.70;34.27;;;17.90;99.90;;;;;;6277303;28;20584;-59
2022/10/17 18:55:03;;;;;;;39.40;33.67;;;17.80;99.90;;;;;;6277674;28;20592;-60
2022/10/17 18:58:07;;;;;;;37.93;33.47;;;17.80;99.90;;;;;;6276923;28;20238;-60
2022/10/17 19:01:15;;;;;;;44.07;33.53;;;17.70;99.90;;;;;;6276732;28;20220;-61
2022/10/17 19:04:20;;;;;;;37.93;31.80;;;17.60;99.90;;;;;;6275047;28;20231;-60
2022/10/17 19:07:25;;;;;;;32.53;29.07;;;17.60;99.90;;;;;;6271781;28;20666;-60
2022/10/17 19:10:28;;;;;;;31.80;28.20;;;17.60;99.90;;;;;;6276174;28;20248;-60
2022/10/17 19:13:32;;;;;;;32.07;28.03;;;17.60;99.90;;;;;;6273888;28;20471;-59
2022/10/17 19:16:37;;;;;;;30.70;27.40;;;17.50;99.90;;;;;;6276426;28;20462;-59
2022/10/17 19:19:41;;;;;;;30.37;27.17;;;17.40;99.90;;;;;;6276179;28;20478;-60
2022/10/17 19:22:45;;;;;;;29.37;26.53;;;17.40;99.90;;;;;;6276042;28;20219;-60
2022/10/17 19:25:49;;;;;;;28.63;25.53;;;17.40;99.90;;;;;;6276030;28;20486;-60
2022/10/17 19:28:54;;;;;;;34.60;26.70;;;17.40;99.90;;;;;;6275701;28;20302;-60
2022/10/17 19:32:00;;;;;;;30.07;27.17;;;17.40;99.90;;;;;;6273077;28;20493;-58
2022/10/17 19:35:04;;;;;;;28.97;25.50;;;17.30;99.90;;;;;;6276474;28;20492;-58
2022/10/17 19:38:08;;;;;;;29.00;25.90;;;17.20;99.90;;;;;;6259440;28;20478;-58
2022/10/17 19:41:14;;;;;;;29.87;26.70;;;17.20;99.90;;;;;;6277577;28;20796;-58
2022/10/17 19:44:18;;;;;;;30.40;27.17;;;17.10;99.90;;;;;;6278227;28;20823;-58
2022/10/17 19:47:23;;;;;;;28.57;25.50;;;17.10;99.90;;;;;;6277821;28;20470;-58
2022/10/17 19:50:26;;;;;;;29.23;26.40;;;17.00;99.90;;;;;;6276409;28;20466;-58
2022/10/17 19:53:30;;;;;;;28.83;25.87;;;17.00;99.90;;;;;;6276000;28;20919;-58
2022/10/17 19:56:36;;;;;;;30.70;25.77;;;16.90;99.90;;;;;;6276268;28;20900;-58
2022/10/17 19:59:41;;;;;;;28.63;25.83;;;16.90;99.90;;;;;;6275688;28;20468;-58
2022/10/17 20:02:45;;;;;;;30.13;26.40;;;16.80;99.90;;;;;;6277075;28;20466;-60
2022/10/17 20:05:50;;;;;;;32.57;26.53;;;16.80;99.90;;;;;;6277356;28;20477;-60
2022/10/17 20:08:54;;;;;;;29.10;26.00;;;16.80;99.90;;;;;;6276002;28;20470;-60
2022/10/17 20:11:58;;;;;;;30.27;26.57;;;16.70;99.90;;;;;;6275818;28;20466;-59
2022/10/17 20:15:02;;;;;;;31.10;27.00;;;16.70;99.90;;;;;;6275739;28;20458;-59
2022/10/17 20:18:07;;;;;;;27.80;24.80;;;16.60;99.90;;;;;;6291211;28;20488;-60
2022/10/17 20:21:13;;;;;;;28.90;26.00;;;16.60;99.90;;;;;;6276237;28;20548;-60
2022/10/17 20:24:17;;;;;;;28.50;23.80;;;16.60;99.90;;;;;;6281548;28;20525;-60
2022/10/17 20:27:20;;;;;;;30.10;26.00;;;16.60;99.90;;;;;;6286679;28;20543;-60